Time;durP1;ratioP1;P1;durP2;ratioP2;P2;SDS_P1;SDS_P2;PMS_P1;PMS_P2;Temp;Humidity;BMP_temperature;BMP_pressure;BME280_temperature;BME280_humidity;BME280_pressure;Samples;Min_cycle;Max_cycle;Signal;HPM_P1;HPM_P2
2023/12/01 00:02:21;;;;;;;127.93;40.05;;;2.20;99.90;;;;;;4961746;28;20528;-61
2023/12/01 00:04:47;;;;;;;116.50;38.35;;;2.10;99.90;;;;;;4966608;28;20035;-63
2023/12/01 00:07:13;;;;;;;123.57;42.38;;;2.10;99.90;;;;;;4962245;28;20030;-63
2023/12/01 00:09:40;;;;;;;126.28;40.97;;;2.20;99.90;;;;;;4963785;28;20024;-62
2023/12/01 00:12:05;;;;;;;125.25;43.55;;;2.10;99.90;;;;;;4969207;28;20114;-60
2023/12/01 00:14:31;;;;;;;116.97;39.80;;;2.10;99.90;;;;;;4970529;28;20468;-63
2023/12/01 00:16:57;;;;;;;106.65;38.15;;;2.10;99.90;;;;;;4969296;28;20026;-64
2023/12/01 00:19:22;;;;;;;83.60;33.22;;;2.10;99.90;;;;;;4968499;28;20121;-63
2023/12/01 00:21:48;;;;;;;64.15;28.58;;;2.00;99.90;;;;;;4963992;28;20031;-62
2023/12/01 00:24:14;;;;;;;68.10;28.90;;;1.90;99.90;;;;;;4969751;28;20023;-64
2023/12/01 00:26:39;;;;;;;62.05;26.02;;;1.90;99.90;;;;;;4969995;28;20396;-62
2023/12/01 00:29:05;;;;;;;65.25;26.73;;;1.80;99.90;;;;;;4969142;28;20027;-63
2023/12/01 00:31:30;;;;;;;58.40;25.98;;;1.80;99.90;;;;;;4966707;28;20070;-62
2023/12/01 00:33:56;;;;;;;61.08;27.30;;;1.70;99.90;;;;;;4968254;28;20496;-63
2023/12/01 00:36:22;;;;;;;54.25;24.20;;;1.60;99.90;;;;;;4970008;28;20497;-62
2023/12/01 00:38:47;;;;;;;60.58;27.05;;;1.60;99.90;;;;;;4970609;28;20031;-61
2023/12/01 00:41:14;;;;;;;51.40;22.02;;;1.50;99.90;;;;;;4973163;28;20395;-60
2023/12/01 00:43:39;;;;;;;55.65;24.40;;;1.30;99.90;;;;;;4970032;28;20185;-61
2023/12/01 00:46:05;;;;;;;59.67;23.40;;;1.20;99.90;;;;;;4967902;28;20026;-64
2023/12/01 00:48:30;;;;;;;49.70;24.67;;;1.30;99.90;;;;;;4966480;28;20027;-60
2023/12/01 00:50:57;;;;;;;49.47;24.08;;;1.20;99.90;;;;;;4969105;28;20042;-63
2023/12/01 00:53:22;;;;;;;54.25;24.52;;;1.20;99.90;;;;;;4970014;28;20030;-64
2023/12/01 00:55:48;;;;;;;51.33;23.38;;;1.20;99.90;;;;;;4966131;28;20074;-63
2023/12/01 00:58:13;;;;;;;53.67;24.45;;;1.10;99.90;;;;;;4966562;28;20027;-63
2023/12/01 01:00:40;;;;;;;57.33;24.27;;;1.10;99.90;;;;;;4962431;28;20041;-62
2023/12/01 01:03:06;;;;;;;60.15;26.25;;;1.00;99.90;;;;;;4960967;28;20029;-63
2023/12/01 01:05:31;;;;;;;61.60;26.40;;;1.00;99.90;;;;;;4961700;28;20031;-63
2023/12/01 01:07:57;;;;;;;56.97;24.17;;;1.00;99.90;;;;;;4959576;28;20038;-62
2023/12/01 01:10:23;;;;;;;52.67;24.45;;;1.00;99.90;;;;;;4966576;28;20046;-61
2023/12/01 01:12:48;;;;;;;67.70;26.05;;;1.00;99.90;;;;;;4966457;28;20031;-63
2023/12/01 01:15:14;;;;;;;64.15;26.70;;;1.00;99.90;;;;;;4966448;28;20030;-61
2023/12/01 01:17:39;;;;;;;59.13;25.00;;;1.00;99.90;;;;;;4966612;28;20039;-60
2023/12/01 01:20:05;;;;;;;63.72;26.27;;;0.90;99.90;;;;;;4966968;28;20050;-60
2023/12/01 01:22:32;;;;;;;60.67;26.85;;;0.90;99.90;;;;;;4969199;28;20496;-62
2023/12/01 01:24:58;;;;;;;66.40;27.23;;;0.90;99.90;;;;;;4968495;28;20057;-59
2023/12/01 01:27:23;;;;;;;60.75;26.02;;;1.00;99.90;;;;;;4970500;28;20513;-61
2023/12/01 01:29:49;;;;;;;68.60;27.15;;;1.10;99.90;;;;;;4971521;28;20043;-63
2023/12/01 01:32:14;;;;;;;70.57;28.83;;;1.10;99.90;;;;;;4969957;28;20130;-61
2023/12/01 01:34:40;;;;;;;77.20;29.27;;;1.10;99.90;;;;;;4970938;28;20050;-62
2023/12/01 01:37:07;;;;;;;81.78;29.88;;;1.20;99.90;;;;;;4970522;28;20078;-63
2023/12/01 01:39:34;;;;;;;91.70;31.50;;;1.20;99.90;;;;;;4968598;28;20429;-62
2023/12/01 01:42:00;;;;;;;92.85;31.20;;;1.20;99.90;;;;;;4964785;28;20094;-63
2023/12/01 01:44:26;;;;;;;89.47;30.15;;;1.20;99.90;;;;;;4969177;28;20117;-62
2023/12/01 01:46:52;;;;;;;91.40;31.08;;;1.20;99.90;;;;;;4967271;28;20504;-63
2023/12/01 01:49:19;;;;;;;87.53;31.02;;;1.20;99.90;;;;;;4968757;28;20110;-62
2023/12/01 01:51:45;;;;;;;93.88;30.90;;;1.30;99.90;;;;;;4969047;28;20054;-62
2023/12/01 01:54:12;;;;;;;108.53;35.83;;;1.30;99.90;;;;;;4966407;28;20066;-61
2023/12/01 01:56:39;;;;;;;86.30;31.67;;;1.30;99.90;;;;;;4966494;28;20035;-63
2023/12/01 01:59:04;;;;;;;93.80;32.53;;;1.40;99.90;;;;;;4971008;28;20026;-63
2023/12/01 02:01:30;;;;;;;98.22;35.15;;;1.40;99.90;;;;;;4964895;28;20113;-62
2023/12/01 02:03:55;;;;;;;92.70;35.50;;;1.50;99.90;;;;;;4966485;28;20096;-60
2023/12/01 02:06:30;;;;;;;108.05;35.83;;;1.50;99.90;;;;;;4966380;28;20059;-62
2023/12/01 02:08:59;;;;;;;90.57;33.50;;;1.50;99.90;;;;;;4965585;28;20382;-61
2023/12/01 02:11:25;;;;;;;98.45;34.67;;;1.50;99.90;;;;;;4964650;28;20768;-62
2023/12/01 02:13:52;;;;;;;98.78;35.30;;;1.50;99.90;;;;;;4966489;28;20085;-62
2023/12/01 02:16:18;;;;;;;100.53;37.10;;;1.60;99.90;;;;;;4970123;28;20025;-62
2023/12/01 02:18:43;;;;;;;102.30;35.17;;;1.60;99.90;;;;;;4967533;28;20038;-63
2023/12/01 02:21:09;;;;;;;100.60;33.65;;;1.60;99.90;;;;;;4967282;28;20544;-62
2023/12/01 02:23:34;;;;;;;101.15;33.42;;;1.60;99.90;;;;;;4970743;28;20035;-62
2023/12/01 02:26:00;;;;;;;95.07;33.42;;;1.60;99.90;;;;;;4972153;28;20396;-64
2023/12/01 02:28:26;;;;;;;103.38;36.17;;;1.60;99.90;;;;;;4968020;28;20396;-62
2023/12/01 02:30:55;;;;;;;106.15;34.35;;;1.60;99.90;;;;;;4969833;28;20083;-63
2023/12/01 02:33:22;;;;;;;97.57;33.20;;;1.60;99.90;;;;;;4968794;28;20031;-61
2023/12/01 02:35:52;;;;;;;85.00;32.55;;;1.60;99.90;;;;;;4968484;28;20042;-63
2023/12/01 02:38:18;;;;;;;96.65;32.63;;;1.50;99.90;;;;;;4968092;28;20444;-62
2023/12/01 02:40:49;;;;;;;109.32;36.22;;;1.50;99.90;;;;;;4968711;28;20397;-64
2023/12/01 02:43:18;;;;;;;102.35;36.22;;;1.60;99.90;;;;;;4968476;28;20053;-63
2023/12/01 02:45:44;;;;;;;104.03;34.95;;;1.60;99.90;;;;;;4971524;28;20070;-61
2023/12/01 02:48:10;;;;;;;103.72;36.13;;;1.60;99.90;;;;;;4961826;28;20031;-62
2023/12/01 02:50:36;;;;;;;97.65;36.58;;;1.60;99.90;;;;;;4969253;28;20026;-61
2023/12/01 02:53:03;;;;;;;101.18;33.35;;;1.70;99.90;;;;;;4964407;28;20065;-60
2023/12/01 02:55:28;;;;;;;106.47;34.72;;;1.70;99.90;;;;;;4963663;28;20115;-60
2023/12/01 02:57:54;;;;;;;97.10;33.53;;;1.60;99.90;;;;;;4964795;28;20109;-61
2023/12/01 03:00:22;;;;;;;90.38;32.75;;;1.50;99.90;;;;;;4963193;28;20026;-61
2023/12/01 03:02:49;;;;;;;89.72;31.33;;;1.60;99.90;;;;;;4963260;28;20061;-59
2023/12/01 03:05:14;;;;;;;73.57;28.67;;;1.50;99.90;;;;;;4965285;28;20027;-62
2023/12/01 03:07:40;;;;;;;73.90;29.92;;;1.40;99.90;;;;;;4963024;28;20154;-63
2023/12/01 03:10:07;;;;;;;76.13;29.08;;;1.40;99.90;;;;;;4964437;28;20085;-59
2023/12/01 03:12:36;;;;;;;69.85;28.58;;;1.40;99.90;;;;;;4961499;28;20027;-61
2023/12/01 03:15:07;;;;;;;72.93;27.48;;;1.30;99.90;;;;;;4964584;28;20105;-62
2023/12/01 03:17:32;;;;;;;72.07;28.02;;;1.10;99.90;;;;;;4966010;28;20077;-63
2023/12/01 03:19:58;;;;;;;68.35;27.50;;;1.20;99.90;;;;;;4964310;28;21578;-61
2023/12/01 03:22:24;;;;;;;66.30;27.08;;;1.10;99.90;;;;;;4961677;28;20034;-62
2023/12/01 03:24:50;;;;;;;66.75;26.90;;;1.10;99.90;;;;;;4964072;28;20034;-61
2023/12/01 03:27:17;;;;;;;66.93;28.30;;;1.00;99.90;;;;;;4965093;28;20050;-62
2023/12/01 03:29:42;;;;;;;74.80;26.42;;;1.00;99.90;;;;;;4962715;28;20031;-60
2023/12/01 03:32:08;;;;;;;70.22;27.88;;;1.00;99.90;;;;;;4965906;28;20093;-60
2023/12/01 03:34:34;;;;;;;72.55;27.60;;;1.10;99.90;;;;;;4965888;28;20027;-63
2023/12/01 03:37:00;;;;;;;72.43;27.75;;;1.10;99.90;;;;;;4965031;28;20034;-61
2023/12/01 03:39:26;;;;;;;68.20;26.80;;;1.00;99.90;;;;;;4963002;28;20079;-62
2023/12/01 03:41:52;;;;;;;68.40;27.13;;;1.00;99.90;;;;;;4961577;28;20039;-61
2023/12/01 03:44:18;;;;;;;66.72;25.10;;;1.00;99.90;;;;;;4965889;28;20093;-60
2023/12/01 03:46:44;;;;;;;67.80;26.35;;;0.90;99.90;;;;;;4963783;28;20058;-62
2023/12/01 03:49:09;;;;;;;67.82;25.23;;;1.00;99.90;;;;;;4963467;28;20042;-63
2023/12/01 03:51:36;;;;;;;69.25;25.58;;;0.90;99.90;;;;;;4966584;28;20420;-60
2023/12/01 03:54:02;;;;;;;68.85;25.00;;;0.90;99.90;;;;;;4963682;28;20039;-63
2023/12/01 03:56:27;;;;;;;69.20;27.20;;;0.90;99.90;;;;;;4964429;28;20109;-62
2023/12/01 03:58:55;;;;;;;66.88;25.02;;;1.00;99.90;;;;;;4962057;28;20069;-63
2023/12/01 04:01:21;;;;;;;73.85;24.25;;;1.00;99.90;;;;;;4966155;28;20062;-62
2023/12/01 04:03:47;;;;;;;78.07;26.83;;;1.00;99.90;;;;;;4964839;28;20110;-62
2023/12/01 04:06:12;;;;;;;74.30;27.13;;;1.00;99.90;;;;;;4964357;28;20106;-61
2023/12/01 04:08:38;;;;;;;61.85;23.73;;;1.00;99.90;;;;;;4964428;28;20523;-61
2023/12/01 04:11:06;;;;;;;64.80;24.33;;;1.10;99.90;;;;;;4965913;28;20058;-62
2023/12/01 04:13:31;;;;;;;64.22;26.00;;;1.10;99.90;;;;;;4969343;28;20023;-60
2023/12/01 04:15:57;;;;;;;56.88;23.00;;;1.10;99.90;;;;;;4970271;28;20412;-61
2023/12/01 04:18:23;;;;;;;60.75;24.13;;;1.10;99.90;;;;;;4973810;28;20073;-61
2023/12/01 04:20:48;;;;;;;63.30;24.58;;;1.10;99.90;;;;;;4971355;28;20030;-60
2023/12/01 04:23:15;;;;;;;66.20;24.73;;;1.20;99.90;;;;;;4969275;28;20027;-61
2023/12/01 04:25:46;;;;;;;56.10;22.88;;;1.10;99.90;;;;;;4972569;28;20043;-62
2023/12/01 04:28:13;;;;;;;62.17;24.17;;;1.00;99.90;;;;;;4969969;28;20026;-64
2023/12/01 04:30:38;;;;;;;59.28;24.70;;;1.00;99.90;;;;;;4971493;28;20097;-64
2023/12/01 04:33:04;;;;;;;59.83;23.50;;;1.10;99.90;;;;;;4974185;28;20030;-62
2023/12/01 04:35:31;;;;;;;66.22;26.27;;;1.10;99.90;;;;;;4969730;28;20065;-64
2023/12/01 04:38:09;;;;;;;64.80;25.15;;;1.00;99.90;;;;;;4970872;28;20489;-63
2023/12/01 04:40:36;;;;;;;68.72;24.92;;;1.00;99.90;;;;;;4970631;28;20034;-63
2023/12/01 04:43:03;;;;;;;56.78;23.25;;;1.00;99.90;;;;;;4972304;28;20019;-61
2023/12/01 04:45:31;;;;;;;62.30;26.05;;;0.90;99.90;;;;;;4975128;28;20050;-64
2023/12/01 04:47:58;;;;;;;56.50;23.55;;;1.00;99.90;;;;;;4972345;28;20133;-62
2023/12/01 04:50:26;;;;;;;63.47;25.10;;;1.10;99.90;;;;;;4969742;28;20542;-64
2023/12/01 04:52:54;;;;;;;67.57;25.42;;;1.20;99.90;;;;;;4969371;28;20031;-61
2023/12/01 04:55:22;;;;;;;57.10;24.52;;;1.20;99.90;;;;;;4973301;28;20037;-62
2023/12/01 04:57:48;;;;;;;61.20;23.42;;;1.20;99.90;;;;;;4968288;28;20042;-64
2023/12/01 05:00:19;;;;;;;69.78;26.52;;;1.20;99.90;;;;;;4968878;28;20049;-62
2023/12/01 05:02:51;;;;;;;64.47;24.50;;;1.10;99.90;;;;;;4983412;28;20077;-62
2023/12/01 05:05:21;;;;;;;62.03;26.02;;;1.20;99.90;;;;;;4967289;28;20673;-61
2023/12/01 05:07:51;;;;;;;69.50;25.27;;;1.20;99.90;;;;;;4967980;28;20039;-63
2023/12/01 05:10:19;;;;;;;75.55;27.50;;;1.20;99.90;;;;;;4970458;28;20023;-62
2023/12/01 05:12:50;;;;;;;60.63;24.02;;;1.10;99.90;;;;;;4968933;28;20058;-64
2023/12/01 05:15:17;;;;;;;68.03;26.38;;;1.00;99.90;;;;;;4963149;28;20058;-62
2023/12/01 05:17:44;;;;;;;60.42;24.27;;;0.90;99.90;;;;;;4967340;28;20055;-61
2023/12/01 05:20:16;;;;;;;63.47;24.88;;;0.90;99.90;;;;;;4969386;28;20053;-61
2023/12/01 05:22:52;;;;;;;71.10;26.25;;;0.90;99.90;;;;;;4971257;28;20452;-63
2023/12/01 05:25:18;;;;;;;66.07;26.23;;;1.00;99.90;;;;;;4961612;28;20105;-57
2023/12/01 05:27:51;;;;;;;67.47;26.38;;;1.00;99.90;;;;;;4962161;28;20037;-61
2023/12/01 05:30:19;;;;;;;65.68;23.95;;;1.00;99.90;;;;;;4961192;28;20060;-61
2023/12/01 05:32:46;;;;;;;69.03;26.70;;;1.00;99.90;;;;;;4962737;28;20038;-62
2023/12/01 05:35:12;;;;;;;67.47;24.13;;;1.00;99.90;;;;;;4961750;28;20511;-60
2023/12/01 05:37:49;;;;;;;67.88;24.63;;;1.00;99.90;;;;;;4961468;28;20031;-61
2023/12/01 05:40:24;;;;;;;60.22;27.15;;;1.00;99.90;;;;;;4961502;28;20737;-62
2023/12/01 05:42:52;;;;;;;58.25;22.55;;;0.90;99.90;;;;;;4960889;28;20112;-60
2023/12/01 05:45:20;;;;;;;54.13;22.45;;;0.90;99.90;;;;;;4963125;28;20121;-60
2023/12/01 05:47:47;;;;;;;54.05;22.30;;;0.90;99.90;;;;;;4961696;28;20034;-58
2023/12/01 05:50:17;;;;;;;60.00;24.10;;;0.90;99.90;;;;;;4963199;28;20038;-60
2023/12/01 05:52:47;;;;;;;62.35;22.33;;;0.80;99.90;;;;;;4963441;28;20583;-62
2023/12/01 05:55:15;;;;;;;61.00;24.73;;;0.90;99.90;;;;;;4963012;28;20338;-63
2023/12/01 05:57:42;;;;;;;55.08;23.20;;;0.90;99.90;;;;;;4960625;28;20552;-62
2023/12/01 06:00:15;;;;;;;53.85;21.63;;;0.90;99.90;;;;;;4958677;28;20031;-61
2023/12/01 06:03:00;;;;;;;57.45;21.52;;;1.00;99.90;;;;;;4965411;28;20034;-62
2023/12/01 06:05:27;;;;;;;55.85;21.23;;;0.90;99.90;;;;;;4963271;28;20035;-63
2023/12/01 06:07:54;;;;;;;58.55;22.25;;;1.00;99.90;;;;;;4964046;28;20023;-62
2023/12/01 06:10:21;;;;;;;54.67;23.50;;;1.00;99.90;;;;;;4966819;28;20085;-63
2023/12/01 06:12:47;;;;;;;53.17;21.08;;;1.00;99.90;;;;;;4964288;28;20037;-62
2023/12/01 06:15:14;;;;;;;58.38;23.17;;;1.00;99.90;;;;;;4967308;28;20066;-64
2023/12/01 06:17:43;;;;;;;57.45;22.23;;;0.90;99.90;;;;;;4968796;28;20527;-64
2023/12/01 06:20:17;;;;;;;55.85;22.13;;;1.00;99.90;;;;;;4970814;28;20041;-64
2023/12/01 06:23:05;;;;;;;58.08;24.27;;;1.00;99.90;;;;;;4971567;28;20057;-63
2023/12/01 06:25:32;;;;;;;54.60;23.13;;;1.00;99.90;;;;;;4972046;28;20035;-63
2023/12/01 06:28:00;;;;;;;58.58;24.25;;;1.00;99.90;;;;;;4970694;28;20536;-58
2023/12/01 06:30:27;;;;;;;63.20;24.20;;;1.00;99.90;;;;;;4964369;28;20039;-64
2023/12/01 06:32:53;;;;;;;56.38;22.73;;;1.10;99.90;;;;;;4972121;28;20023;-62
2023/12/01 06:35:20;;;;;;;52.05;21.80;;;1.10;99.90;;;;;;4966949;28;20144;-63
2023/12/01 06:37:46;;;;;;;49.72;21.60;;;1.00;99.90;;;;;;4968614;28;20106;-61
2023/12/01 06:40:15;;;;;;;44.78;19.38;;;1.00;99.90;;;;;;4963145;28;20512;-62
2023/12/01 06:42:42;;;;;;;50.30;19.63;;;1.00;99.90;;;;;;4969649;28;20054;-63
2023/12/01 06:45:10;;;;;;;50.92;20.75;;;1.00;99.90;;;;;;4966923;28;20074;-61
2023/12/01 06:47:37;;;;;;;54.20;22.15;;;1.00;99.90;;;;;;4970105;28;20117;-61
2023/12/01 06:50:03;;;;;;;49.72;20.45;;;1.10;99.90;;;;;;4967791;28;20085;-62
2023/12/01 06:52:28;;;;;;;47.17;18.65;;;1.10;99.90;;;;;;4970547;28;20612;-62
2023/12/01 06:54:54;;;;;;;45.78;19.33;;;1.00;99.90;;;;;;4972290;28;20550;-63
2023/12/01 06:57:19;;;;;;;49.30;19.15;;;1.00;99.90;;;;;;4972040;28;20524;-61
2023/12/01 06:59:45;;;;;;;37.72;15.85;;;1.10;99.90;;;;;;4970837;28;20035;-63
2023/12/01 07:02:10;;;;;;;39.60;14.82;;;1.20;99.90;;;;;;4970614;28;20031;-65
2023/12/01 07:04:36;;;;;;;36.40;15.90;;;1.20;99.90;;;;;;4970919;28;20030;-63
2023/12/01 07:07:02;;;;;;;37.40;15.98;;;1.20;99.90;;;;;;4970665;28;20034;-62
2023/12/01 07:09:28;;;;;;;34.45;15.13;;;1.20;99.90;;;;;;4971530;28;20045;-63
2023/12/01 07:11:54;;;;;;;39.95;15.95;;;1.10;99.90;;;;;;4970867;28;20018;-63
2023/12/01 07:14:23;;;;;;;31.75;13.55;;;1.20;99.90;;;;;;4970219;28;20034;-63
2023/12/01 07:16:49;;;;;;;29.88;14.63;;;1.30;99.90;;;;;;4971135;28;20034;-64
2023/12/01 07:19:14;;;;;;;33.80;13.80;;;1.30;99.90;;;;;;4969657;28;20404;-62
2023/12/01 07:21:40;;;;;;;28.98;12.65;;;1.30;99.90;;;;;;4966742;28;20541;-61
2023/12/01 07:24:08;;;;;;;28.77;12.02;;;1.30;99.90;;;;;;4963046;28;20508;-63
2023/12/01 07:26:34;;;;;;;28.05;11.65;;;1.30;99.90;;;;;;4969067;28;20109;-59
2023/12/01 07:29:00;;;;;;;24.13;11.68;;;1.40;99.90;;;;;;4963581;28;20078;-59
2023/12/01 07:31:26;;;;;;;22.50;10.77;;;1.30;99.90;;;;;;4968655;28;20031;-60
2023/12/01 07:33:52;;;;;;;28.70;12.82;;;1.40;99.90;;;;;;4969538;28;20022;-62
2023/12/01 07:36:18;;;;;;;23.65;10.80;;;1.50;99.90;;;;;;4967596;28;20031;-63
2023/12/01 07:38:44;;;;;;;33.67;13.55;;;1.50;99.90;;;;;;4970351;28;20014;-62
2023/12/01 07:41:12;;;;;;;28.85;12.60;;;1.40;99.90;;;;;;4973360;28;20074;-62
2023/12/01 07:43:40;;;;;;;27.13;11.80;;;1.40;99.90;;;;;;4966703;28;20015;-64
2023/12/01 07:46:06;;;;;;;30.15;13.32;;;1.50;99.90;;;;;;4968924;28;20034;-63
2023/12/01 07:48:32;;;;;;;28.75;11.85;;;1.40;99.90;;;;;;4965718;28;20034;-62
2023/12/01 07:50:58;;;;;;;27.65;12.70;;;1.40;99.90;;;;;;4966608;28;20104;-62
2023/12/01 07:53:24;;;;;;;34.47;13.60;;;1.30;99.90;;;;;;4966421;28;20516;-60
2023/12/01 07:55:50;;;;;;;36.35;14.00;;;1.30;99.90;;;;;;4967395;28;20034;-63
2023/12/01 07:58:16;;;;;;;35.47;13.85;;;1.30;99.90;;;;;;4968009;28;20088;-61
2023/12/01 08:00:42;;;;;;;31.00;13.75;;;1.30;99.90;;;;;;4968682;28;20027;-63
2023/12/01 08:03:08;;;;;;;35.22;14.20;;;1.30;99.90;;;;;;4968022;28;20046;-62
2023/12/01 08:05:34;;;;;;;28.38;12.80;;;1.30;99.90;;;;;;4966533;28;20063;-63
2023/12/01 08:08:00;;;;;;;39.80;14.02;;;1.20;99.90;;;;;;4964664;28;20027;-63
2023/12/01 08:10:27;;;;;;;29.40;13.20;;;1.20;99.90;;;;;;4967140;28;20392;-62
2023/12/01 08:12:56;;;;;;;28.83;12.15;;;1.20;99.90;;;;;;4966837;28;20512;-61
2023/12/01 08:15:22;;;;;;;34.80;13.80;;;1.30;99.90;;;;;;4969257;28;20079;-63
2023/12/01 08:17:49;;;;;;;32.95;13.27;;;1.30;99.90;;;;;;4962260;28;20027;-66
2023/12/01 08:20:16;;;;;;;32.80;12.10;;;1.30;99.90;;;;;;4964534;28;20106;-66
2023/12/01 08:22:48;;;;;;;26.98;11.07;;;1.30;99.90;;;;;;4967920;28;20098;-66
2023/12/01 08:25:14;;;;;;;30.20;12.18;;;1.30;99.90;;;;;;4968246;28;20030;-67
2023/12/01 08:27:40;;;;;;;30.83;13.70;;;1.40;99.90;;;;;;4966780;28;20042;-66
2023/12/01 08:30:07;;;;;;;25.70;12.15;;;1.40;99.90;;;;;;4960536;28;20107;-65
2023/12/01 08:32:32;;;;;;;30.25;12.60;;;1.50;99.90;;;;;;4961038;28;20027;-66
2023/12/01 08:34:58;;;;;;;24.08;11.55;;;1.40;99.90;;;;;;4966259;28;20051;-66
2023/12/01 08:37:24;;;;;;;27.98;11.25;;;1.50;99.90;;;;;;4967411;28;20039;-65
2023/12/01 08:39:50;;;;;;;26.70;11.25;;;1.40;99.90;;;;;;4970510;28;20054;-65
2023/12/01 08:42:16;;;;;;;24.10;10.20;;;1.40;99.90;;;;;;4970236;28;20034;-66
2023/12/01 08:44:42;;;;;;;21.08;10.45;;;1.30;99.90;;;;;;4966994;28;20027;-66
2023/12/01 08:47:08;;;;;;;27.70;9.70;;;1.20;99.90;;;;;;4969640;28;20023;-66
2023/12/01 08:49:34;;;;;;;25.27;11.23;;;1.20;99.90;;;;;;4964952;28;20073;-65
2023/12/01 08:52:00;;;;;;;21.45;10.10;;;1.10;99.90;;;;;;4969259;28;20034;-65
2023/12/01 08:54:25;;;;;;;26.92;11.45;;;1.10;99.90;;;;;;4968387;28;20031;-66
2023/12/01 08:56:51;;;;;;;25.25;11.45;;;1.20;99.90;;;;;;4964578;28;20031;-66
2023/12/01 08:59:19;;;;;;;24.45;10.68;;;1.20;99.90;;;;;;4963917;28;20027;-66
2023/12/01 09:01:45;;;;;;;25.42;11.27;;;1.20;99.90;;;;;;4969505;28;20024;-66
2023/12/01 09:04:11;;;;;;;21.05;10.23;;;1.20;99.90;;;;;;4970926;28;20054;-65
2023/12/01 09:06:38;;;;;;;23.90;9.63;;;1.20;99.90;;;;;;4971568;28;20033;-66
2023/12/01 09:09:04;;;;;;;20.60;9.10;;;1.10;99.90;;;;;;4972172;28;20019;-64
2023/12/01 09:11:30;;;;;;;23.65;9.15;;;1.10;99.90;;;;;;4971091;28;20855;-65
2023/12/01 09:13:56;;;;;;;19.63;9.15;;;1.00;99.90;;;;;;4971654;28;20110;-66
2023/12/01 09:16:23;;;;;;;23.10;9.52;;;1.00;99.90;;;;;;4971515;28;20041;-66
2023/12/01 09:18:50;;;;;;;17.25;8.20;;;1.10;99.90;;;;;;4970120;28;20059;-66
2023/12/01 09:21:15;;;;;;;12.93;6.40;;;1.10;99.90;;;;;;4970224;28;20029;-65
2023/12/01 09:23:41;;;;;;;11.43;5.68;;;1.10;99.90;;;;;;4970299;28;20030;-66
2023/12/01 09:26:07;;;;;;;8.95;4.93;;;1.10;99.90;;;;;;4971386;28;20073;-67
2023/12/01 09:28:35;;;;;;;11.13;4.20;;;1.20;99.90;;;;;;4972850;28;20022;-66
2023/12/01 09:31:04;;;;;;;8.60;4.05;;;1.20;99.90;;;;;;4967095;28;20097;-65
2023/12/01 09:33:32;;;;;;;8.57;4.47;;;1.20;99.90;;;;;;4970679;28;20070;-67
2023/12/01 09:35:58;;;;;;;8.90;4.35;;;1.30;99.90;;;;;;4970143;28;20560;-66
2023/12/01 09:38:24;;;;;;;7.20;3.90;;;1.40;99.90;;;;;;4969860;28;20034;-65
2023/12/01 09:40:50;;;;;;;11.23;4.28;;;1.30;99.90;;;;;;4973954;28;20508;-66
2023/12/01 09:43:19;;;;;;;12.75;5.90;;;1.40;99.90;;;;;;4973605;28;20058;-66
2023/12/01 09:45:44;;;;;;;14.18;6.35;;;1.40;99.90;;;;;;4968243;28;20082;-66
2023/12/01 09:48:13;;;;;;;15.18;5.18;;;1.40;99.90;;;;;;4971106;28;20023;-65
2023/12/01 09:50:39;;;;;;;13.48;5.18;;;1.40;99.90;;;;;;4968320;28;20010;-66
2023/12/01 09:53:05;;;;;;;17.20;6.78;;;1.50;99.90;;;;;;4969616;28;20046;-67
2023/12/01 09:55:33;;;;;;;19.52;7.40;;;1.50;99.90;;;;;;4969319;28;20031;-66
2023/12/01 09:57:59;;;;;;;16.55;7.70;;;1.50;99.90;;;;;;4970285;28;20023;-66
2023/12/01 10:00:25;;;;;;;15.88;6.97;;;1.60;99.90;;;;;;4970542;28;20405;-66
2023/12/01 10:02:51;;;;;;;16.13;6.72;;;1.50;99.90;;;;;;4971258;28;20483;-65
2023/12/01 10:05:19;;;;;;;20.25;8.73;;;1.60;99.90;;;;;;4971352;28;20541;-66
2023/12/01 10:07:45;;;;;;;13.90;6.50;;;1.50;99.90;;;;;;4971079;28;20105;-66
2023/12/01 10:10:22;;;;;;;12.18;5.35;;;1.60;99.90;;;;;;4968989;28;20552;-66
2023/12/01 10:13:06;;;;;;;11.10;5.25;;;1.60;99.90;;;;;;4967682;28;20532;-65
2023/12/01 10:15:37;;;;;;;11.60;5.03;;;1.70;99.90;;;;;;4968904;28;20031;-65
2023/12/01 10:18:19;;;;;;;10.95;5.13;;;1.80;99.90;;;;;;4971207;28;20101;-66
2023/12/01 10:21:07;;;;;;;14.85;6.82;;;1.60;99.90;;;;;;4971404;28;20022;-67
2023/12/01 10:23:36;;;;;;;14.20;6.75;;;1.50;99.90;;;;;;4969580;28;20058;-66
2023/12/01 10:26:04;;;;;;;17.33;7.13;;;1.40;99.90;;;;;;4966667;28;20162;-66
2023/12/01 10:28:40;;;;;;;16.13;6.50;;;1.50;99.90;;;;;;4964869;28;20019;-65
2023/12/01 10:31:06;;;;;;;15.65;6.70;;;1.40;99.90;;;;;;4969465;28;20065;-65
2023/12/01 10:33:35;;;;;;;17.15;7.18;;;1.40;99.90;;;;;;4969529;28;20031;-67
2023/12/01 10:36:05;;;;;;;15.68;7.00;;;1.40;99.90;;;;;;4970567;28;20023;-65
2023/12/01 10:38:33;;;;;;;14.70;6.78;;;1.30;99.90;;;;;;4970681;28;20125;-65
2023/12/01 10:40:59;;;;;;;15.02;7.07;;;1.40;99.90;;;;;;4975382;28;20113;-65
2023/12/01 10:43:26;;;;;;;15.30;6.65;;;1.40;99.90;;;;;;4968071;28;20119;-65
2023/12/01 10:45:52;;;;;;;18.40;8.18;;;1.40;99.90;;;;;;4966421;28;20058;-64
2023/12/01 10:48:19;;;;;;;19.40;9.50;;;1.40;99.90;;;;;;4965539;28;20078;-66
2023/12/01 10:50:47;;;;;;;15.20;7.35;;;1.40;99.90;;;;;;4969245;28;20110;-66
2023/12/01 10:53:14;;;;;;;20.33;9.07;;;1.40;99.90;;;;;;4968764;28;20041;-65
2023/12/01 10:55:45;;;;;;;16.45;6.88;;;1.40;99.90;;;;;;4964833;28;20123;-65
2023/12/01 10:58:15;;;;;;;18.08;7.95;;;1.30;99.90;;;;;;4964039;28;20442;-66
2023/12/01 11:00:40;;;;;;;13.13;6.68;;;1.30;99.90;;;;;;4962818;28;20033;-66
2023/12/01 11:03:08;;;;;;;13.35;6.60;;;1.40;99.90;;;;;;4964304;28;20022;-65
2023/12/01 11:05:36;;;;;;;13.32;6.85;;;1.40;99.90;;;;;;4965778;28;20421;-66
2023/12/01 11:08:36;;;;;;;14.23;6.68;;;1.40;99.90;;;;;;4952033;28;20029;-66
2023/12/01 11:11:31;;;;;;;14.45;7.30;;;1.40;99.90;;;;;;4952042;28;20046;-65
2023/12/01 11:14:16;;;;;;;;;;;1.30;99.90;;;;;;4962894;28;20413;-65
2023/12/01 11:16:42;;;;;;;;;;;1.40;99.90;;;;;;4965575;28;19917;-64
2023/12/01 11:19:09;;;;;;;14.18;7.20;;;1.40;99.90;;;;;;4961857;28;20308;-66
2023/12/01 11:21:35;;;;;;;20.20;8.10;;;1.30;99.90;;;;;;4968739;28;20169;-65
2023/12/01 11:24:26;;;;;;;18.02;7.13;;;1.30;99.90;;;;;;4965856;28;20565;-65
2023/12/01 11:26:52;;;;;;;16.60;7.75;;;1.30;99.90;;;;;;4965848;28;20027;-66
2023/12/01 11:29:28;;;;;;;16.52;7.88;;;1.40;99.90;;;;;;4962863;28;20034;-65
2023/12/01 11:31:56;;;;;;;16.77;8.05;;;1.50;99.90;;;;;;4965853;28;20062;-65
2023/12/01 11:34:23;;;;;;;19.45;8.52;;;1.70;99.90;;;;;;4964407;28;20062;-64
2023/12/01 11:36:49;;;;;;;14.88;7.47;;;1.60;99.90;;;;;;4966768;28;20074;-66
2023/12/01 11:39:26;;;;;;;20.25;7.70;;;1.50;99.90;;;;;;4967574;28;20576;-66
2023/12/01 11:41:57;;;;;;;18.98;7.85;;;1.50;99.90;;;;;;4968966;28;20035;-65
2023/12/01 11:44:40;;;;;;;16.67;7.55;;;1.50;99.90;;;;;;4965743;28;20035;-70
2023/12/01 11:47:08;;;;;;;15.13;7.38;;;1.60;99.90;;;;;;4967336;28;20026;-64
2023/12/01 11:49:39;;;;;;;14.25;7.13;;;1.70;99.90;;;;;;4966692;28;20023;-66
2023/12/01 11:52:10;;;;;;;19.85;10.00;;;1.80;99.90;;;;;;4961892;28;20027;-66
2023/12/01 11:54:37;;;;;;;11.77;5.78;;;1.80;99.90;;;;;;4964469;28;20993;-65
2023/12/01 11:57:07;;;;;;;14.40;6.40;;;1.70;99.90;;;;;;4961954;28;20039;-66
2023/12/01 11:59:33;;;;;;;10.15;5.18;;;1.70;99.90;;;;;;4964101;28;20018;-66
2023/12/01 12:01:58;;;;;;;11.02;5.63;;;1.70;99.90;;;;;;4965473;28;20037;-66
2023/12/01 12:04:24;;;;;;;13.40;5.95;;;1.60;99.90;;;;;;4965887;28;20106;-67
2023/12/01 12:06:51;;;;;;;14.10;6.15;;;1.70;99.90;;;;;;4965492;28;20058;-66
2023/12/01 12:09:19;;;;;;;12.20;6.20;;;1.80;99.90;;;;;;4964960;28;20026;-66
2023/12/01 12:11:48;;;;;;;10.68;5.40;;;1.90;99.90;;;;;;4963902;28;20058;-66
2023/12/01 12:14:15;;;;;;;10.57;5.20;;;2.00;99.90;;;;;;4965424;28;20019;-65
2023/12/01 12:16:40;;;;;;;11.65;5.47;;;2.00;99.90;;;;;;4969106;28;20485;-65
2023/12/01 12:19:06;;;;;;;24.60;7.13;;;2.00;99.90;;;;;;4967129;28;20037;-65
2023/12/01 12:21:33;;;;;;;12.95;6.30;;;1.80;99.90;;;;;;4965916;28;20030;-65
2023/12/01 12:23:59;;;;;;;15.63;6.55;;;1.90;99.90;;;;;;4969086;28;20030;-65
2023/12/01 12:26:27;;;;;;;15.20;6.40;;;1.90;99.90;;;;;;4968414;28;20034;-65
2023/12/01 12:28:57;;;;;;;14.10;6.32;;;1.90;99.90;;;;;;4967340;28;20037;-65
2023/12/01 12:31:25;;;;;;;10.57;5.90;;;2.00;99.90;;;;;;4969413;28;20043;-65
2023/12/01 12:33:56;;;;;;;17.70;6.93;;;2.00;99.90;;;;;;4968425;28;20033;-66
2023/12/01 12:36:23;;;;;;;12.40;6.47;;;2.00;99.90;;;;;;4974061;28;20041;-66
2023/12/01 12:38:50;;;;;;;12.70;6.25;;;2.00;99.90;;;;;;4970350;28;20062;-67
2023/12/01 12:41:36;;;;;;;12.90;5.40;;;2.00;99.90;;;;;;4970967;28;20076;-65
2023/12/01 12:44:04;;;;;;;12.00;6.05;;;2.00;99.90;;;;;;4969919;28;20516;-65